sensor_id;sensor_type;location;lat;lon;timestamp;pressure;altitude;pressure_sealevel;temperature;humidity
39363;BME280;25088;43.238;23.110;2023-03-08T00:00:39;95626.88;;;7.57;66.70
39363;BME280;25088;43.238;23.110;2023-03-08T00:03:04;95628.03;;;7.66;67.36
39363;BME280;25088;43.238;23.110;2023-03-08T00:05:30;95629.81;;;7.56;68.00
39363;BME280;25088;43.238;23.110;2023-03-08T00:07:55;95624.63;;;7.49;69.11
39363;BME280;25088;43.238;23.110;2023-03-08T00:10:21;95622.63;;;7.39;69.99
39363;BME280;25088;43.238;23.110;2023-03-08T00:12:47;95620.13;;;7.33;69.73
39363;BME280;25088;43.238;23.110;2023-03-08T00:15:12;95629.50;;;7.20;71.69
39363;BME280;25088;43.238;23.110;2023-03-08T00:17:38;95637.91;;;7.18;69.29
39363;BME280;25088;43.238;23.110;2023-03-08T00:20:06;95631.13;;;7.21;71.77
39363;BME280;25088;43.238;23.110;2023-03-08T00:22:38;95644.06;;;7.09;73.55
39363;BME280;25088;43.238;23.110;2023-03-08T00:25:05;95602.69;;;6.74;73.33
39363;BME280;25088;43.238;23.110;2023-03-08T00:27:33;95627.00;;;6.86;73.53
39363;BME280;25088;43.238;23.110;2023-03-08T00:29:59;95647.78;;;6.81;73.34
39363;BME280;25088;43.238;23.110;2023-03-08T00:32:24;95639.66;;;6.81;72.27
39363;BME280;25088;43.238;23.110;2023-03-08T00:34:51;95636.56;;;6.94;70.88
39363;BME280;25088;43.238;23.110;2023-03-08T00:37:17;95636.28;;;7.17;70.59
39363;BME280;25088;43.238;23.110;2023-03-08T00:39:42;95641.88;;;7.11;72.12
39363;BME280;25088;43.238;23.110;2023-03-08T00:42:08;95633.19;;;7.09;71.15
39363;BME280;25088;43.238;23.110;2023-03-08T00:44:33;95628.84;;;7.08;72.33
39363;BME280;25088;43.238;23.110;2023-03-08T00:46:59;95607.16;;;6.86;71.97
39363;BME280;25088;43.238;23.110;2023-03-08T00:49:25;95631.88;;;7.11;71.19
39363;BME280;25088;43.238;23.110;2023-03-08T00:51:50;95626.53;;;7.48;68.85
39363;BME280;25088;43.238;23.110;2023-03-08T00:54:16;95619.44;;;7.80;65.20
39363;BME280;25088;43.238;23.110;2023-03-08T00:56:41;95627.63;;;8.22;63.07
39363;BME280;25088;43.238;23.110;2023-03-08T00:59:07;95603.66;;;8.66;60.30
39363;BME280;25088;43.238;23.110;2023-03-08T01:01:32;95589.38;;;9.12;57.70
39363;BME280;25088;43.238;23.110;2023-03-08T01:03:58;95610.66;;;9.81;55.19
39363;BME280;25088;43.238;23.110;2023-03-08T01:06:24;95617.22;;;10.00;55.32
39363;BME280;25088;43.238;23.110;2023-03-08T01:08:49;95611.19;;;9.93;55.36
39363;BME280;25088;43.238;23.110;2023-03-08T01:11:21;95604.41;;;9.75;56.00
39363;BME280;25088;43.238;23.110;2023-03-08T01:13:48;95599.75;;;10.06;54.68
39363;BME280;25088;43.238;23.110;2023-03-08T01:16:26;95612.22;;;10.43;53.47
39363;BME280;25088;43.238;23.110;2023-03-08T01:18:53;95621.47;;;10.57;53.28
39363;BME280;25088;43.238;23.110;2023-03-08T01:21:20;95622.84;;;10.60;53.26
39363;BME280;25088;43.238;23.110;2023-03-08T01:23:46;95616.84;;;10.48;53.23
39363;BME280;25088;43.238;23.110;2023-03-08T01:26:14;95633.25;;;10.43;54.04
39363;BME280;25088;43.238;23.110;2023-03-08T01:28:40;95622.94;;;10.29;54.44
39363;BME280;25088;43.238;23.110;2023-03-08T01:31:07;95625.34;;;10.36;53.71
39363;BME280;25088;43.238;23.110;2023-03-08T01:33:33;95615.25;;;10.37;54.38
39363;BME280;25088;43.238;23.110;2023-03-08T01:36:02;95617.69;;;10.23;54.84
39363;BME280;25088;43.238;23.110;2023-03-08T01:38:28;95620.47;;;10.02;55.63
39363;BME280;25088;43.238;23.110;2023-03-08T01:40:57;95618.28;;;9.89;56.60
39363;BME280;25088;43.238;23.110;2023-03-08T01:43:30;95617.75;;;9.62;57.07
39363;BME280;25088;43.238;23.110;2023-03-08T01:49:11;95634.38;;;9.65;58.46
39363;BME280;25088;43.238;23.110;2023-03-08T01:54:28;95628.88;;;9.40;58.44
39363;BME280;25088;43.238;23.110;2023-03-08T01:56:59;95625.31;;;9.24;60.10
39363;BME280;25088;43.238;23.110;2023-03-08T01:59:25;95632.13;;;9.11;60.86
39363;BME280;25088;43.238;23.110;2023-03-08T02:01:52;95631.81;;;9.02;61.25
39363;BME280;25088;43.238;23.110;2023-03-08T02:04:17;95628.25;;;8.92;60.87
39363;BME280;25088;43.238;23.110;2023-03-08T02:06:43;95625.84;;;9.05;59.34
39363;BME280;25088;43.238;23.110;2023-03-08T02:09:10;95620.63;;;8.94;60.92
39363;BME280;25088;43.238;23.110;2023-03-08T02:11:37;95616.56;;;8.96;59.07
39363;BME280;25088;43.238;23.110;2023-03-08T02:14:04;95638.94;;;9.19;57.20
39363;BME280;25088;43.238;23.110;2023-03-08T02:16:30;95643.56;;;9.18;57.36
39363;BME280;25088;43.238;23.110;2023-03-08T02:19:01;95650.38;;;9.21;56.96
39363;BME280;25088;43.238;23.110;2023-03-08T02:21:29;95644.72;;;9.58;53.74
39363;BME280;25088;43.238;23.110;2023-03-08T02:23:55;95618.56;;;9.67;54.04
39363;BME280;25088;43.238;23.110;2023-03-08T02:26:26;95648.03;;;9.80;54.00
39363;BME280;25088;43.238;23.110;2023-03-08T02:28:52;95643.66;;;9.84;53.68
39363;BME280;25088;43.238;23.110;2023-03-08T02:31:17;95652.38;;;10.02;53.32
39363;BME280;25088;43.238;23.110;2023-03-08T02:33:43;95643.09;;;10.13;52.61
39363;BME280;25088;43.238;23.110;2023-03-08T02:36:09;95637.91;;;10.06;53.00
39363;BME280;25088;43.238;23.110;2023-03-08T02:38:35;95633.28;;;9.81;53.45
39363;BME280;25088;43.238;23.110;2023-03-08T02:41:00;95642.56;;;9.65;54.34
39363;BME280;25088;43.238;23.110;2023-03-08T02:43:26;95624.00;;;9.57;55.14
39363;BME280;25088;43.238;23.110;2023-03-08T02:45:51;95640.91;;;9.64;54.41
39363;BME280;25088;43.238;23.110;2023-03-08T02:48:17;95639.25;;;9.53;54.88
39363;BME280;25088;43.238;23.110;2023-03-08T02:50:43;95641.44;;;9.30;55.41
39363;BME280;25088;43.238;23.110;2023-03-08T02:53:09;95621.53;;;9.30;55.41
39363;BME280;25088;43.238;23.110;2023-03-08T02:55:35;95630.53;;;9.36;55.37
39363;BME280;25088;43.238;23.110;2023-03-08T02:58:03;95633.22;;;9.15;55.94
39363;BME280;25088;43.238;23.110;2023-03-08T03:00:29;95614.03;;;8.79;57.25
39363;BME280;25088;43.238;23.110;2023-03-08T03:02:54;95631.22;;;8.85;56.54
39363;BME280;25088;43.238;23.110;2023-03-08T03:05:20;95633.09;;;8.85;57.02
39363;BME280;25088;43.238;23.110;2023-03-08T03:07:45;95595.09;;;9.20;54.48
39363;BME280;25088;43.238;23.110;2023-03-08T03:10:12;95618.56;;;9.62;53.70
39363;BME280;25088;43.238;23.110;2023-03-08T03:12:38;95620.19;;;9.89;52.61
39363;BME280;25088;43.238;23.110;2023-03-08T03:15:05;95621.28;;;9.98;52.71
39363;BME280;25088;43.238;23.110;2023-03-08T03:17:31;95640.38;;;9.98;52.15
39363;BME280;25088;43.238;23.110;2023-03-08T03:19:57;95648.81;;;10.06;52.33
39363;BME280;25088;43.238;23.110;2023-03-08T03:22:23;95615.53;;;9.99;52.28
39363;BME280;25088;43.238;23.110;2023-03-08T03:24:49;95618.53;;;10.13;51.55
39363;BME280;25088;43.238;23.110;2023-03-08T03:27:16;95617.19;;;10.10;52.29
39363;BME280;25088;43.238;23.110;2023-03-08T03:29:42;95633.25;;;10.17;52.02
39363;BME280;25088;43.238;23.110;2023-03-08T03:32:07;95624.56;;;10.10;52.03
39363;BME280;25088;43.238;23.110;2023-03-08T03:34:32;95631.34;;;10.23;51.37
39363;BME280;25088;43.238;23.110;2023-03-08T03:36:58;95618.00;;;10.21;51.25
39363;BME280;25088;43.238;23.110;2023-03-08T03:39:24;95631.13;;;10.24;51.19
39363;BME280;25088;43.238;23.110;2023-03-08T03:41:49;95617.69;;;10.23;51.71
39363;BME280;25088;43.238;23.110;2023-03-08T03:44:15;95615.56;;;10.25;51.92
39363;BME280;25088;43.238;23.110;2023-03-08T03:46:40;95643.38;;;10.27;51.58
39363;BME280;25088;43.238;23.110;2023-03-08T03:49:06;95630.25;;;10.19;52.23
39363;BME280;25088;43.238;23.110;2023-03-08T03:51:31;95630.81;;;10.16;52.06
39363;BME280;25088;43.238;23.110;2023-03-08T03:53:57;95626.16;;;10.21;52.52
39363;BME280;25088;43.238;23.110;2023-03-08T03:56:25;95627.00;;;10.22;52.42
39363;BME280;25088;43.238;23.110;2023-03-08T03:58:51;95646.63;;;10.19;53.01
39363;BME280;25088;43.238;23.110;2023-03-08T04:01:25;95642.28;;;10.07;53.06
39363;BME280;25088;43.238;23.110;2023-03-08T04:03:52;95637.63;;;10.18;52.64
39363;BME280;25088;43.238;23.110;2023-03-08T04:06:31;95620.75;;;10.26;52.44
39363;BME280;25088;43.238;23.110;2023-03-08T04:08:59;95645.81;;;10.28;52.40
39363;BME280;25088;43.238;23.110;2023-03-08T04:11:27;95637.63;;;10.28;52.71
39363;BME280;25088;43.238;23.110;2023-03-08T04:13:53;95640.63;;;10.22;53.10
39363;BME280;25088;43.238;23.110;2023-03-08T04:16:22;95616.94;;;9.97;53.06
39363;BME280;25088;43.238;23.110;2023-03-08T04:18:51;95642.56;;;10.06;53.46
39363;BME280;25088;43.238;23.110;2023-03-08T04:21:17;95631.09;;;9.94;53.71
39363;BME280;25088;43.238;23.110;2023-03-08T04:23:42;95651.56;;;10.01;53.64
39363;BME280;25088;43.238;23.110;2023-03-08T04:26:08;95658.91;;;10.11;53.40
39363;BME280;25088;43.238;23.110;2023-03-08T04:28:34;95644.19;;;10.07;53.40
39363;BME280;25088;43.238;23.110;2023-03-08T04:31:19;95649.66;;;9.97;53.36
39363;BME280;25088;43.238;23.110;2023-03-08T04:33:46;95660.84;;;10.00;53.73
39363;BME280;25088;43.238;23.110;2023-03-08T04:36:12;95679.34;;;9.98;53.74
39363;BME280;25088;43.238;23.110;2023-03-08T04:38:39;95652.91;;;9.78;53.92
39363;BME280;25088;43.238;23.110;2023-03-08T04:41:05;95666.81;;;9.77;54.40
39363;BME280;25088;43.238;23.110;2023-03-08T04:43:44;95680.16;;;9.78;53.89
39363;BME280;25088;43.238;23.110;2023-03-08T04:46:10;95676.63;;;9.78;54.00
39363;BME280;25088;43.238;23.110;2023-03-08T04:48:36;95691.63;;;9.75;55.14
39363;BME280;25088;43.238;23.110;2023-03-08T04:51:03;95662.69;;;9.49;54.86
39363;BME280;25088;43.238;23.110;2023-03-08T04:53:29;95705.25;;;9.65;55.54
39363;BME280;25088;43.238;23.110;2023-03-08T04:55:56;95710.13;;;9.63;55.76
39363;BME280;25088;43.238;23.110;2023-03-08T04:58:23;95709.88;;;9.70;54.63
39363;BME280;25088;43.238;23.110;2023-03-08T05:00:49;95676.88;;;9.51;54.25
39363;BME280;25088;43.238;23.110;2023-03-08T05:03:14;95711.25;;;9.77;54.45
39363;BME280;25088;43.238;23.110;2023-03-08T05:05:48;95700.63;;;9.81;54.47
39363;BME280;25088;43.238;23.110;2023-03-08T05:08:14;95704.47;;;9.85;54.51
39363;BME280;25088;43.238;23.110;2023-03-08T05:10:49;95702.53;;;9.80;53.87
39363;BME280;25088;43.238;23.110;2023-03-08T05:13:14;95692.69;;;9.64;55.04
39363;BME280;25088;43.238;23.110;2023-03-08T05:15:41;95716.66;;;9.62;55.15
39363;BME280;25088;43.238;23.110;2023-03-08T05:18:06;95719.09;;;9.48;54.84
39363;BME280;25088;43.238;23.110;2023-03-08T05:20:32;95716.09;;;9.45;54.38
39363;BME280;25088;43.238;23.110;2023-03-08T05:22:57;95726.16;;;9.44;55.68
39363;BME280;25088;43.238;23.110;2023-03-08T05:25:22;95728.59;;;9.36;55.23
39363;BME280;25088;43.238;23.110;2023-03-08T05:27:48;95736.22;;;9.39;55.89
39363;BME280;25088;43.238;23.110;2023-03-08T05:30:14;95728.63;;;9.46;55.29
39363;BME280;25088;43.238;23.110;2023-03-08T05:32:39;95728.91;;;9.59;55.03
39363;BME280;25088;43.238;23.110;2023-03-08T05:35:05;95711.22;;;9.57;54.87
39363;BME280;25088;43.238;23.110;2023-03-08T05:37:30;95740.16;;;9.89;54.62
39363;BME280;25088;43.238;23.110;2023-03-08T05:39:56;95738.28;;;10.04;53.24
39363;BME280;25088;43.238;23.110;2023-03-08T05:42:21;95741.28;;;10.44;52.75
39363;BME280;25088;43.238;23.110;2023-03-08T05:44:47;95731.16;;;10.75;50.88
39363;BME280;25088;43.238;23.110;2023-03-08T05:47:12;95738.66;;;11.19;49.58
39363;BME280;25088;43.238;23.110;2023-03-08T05:49:38;95728.63;;;11.69;48.38
39363;BME280;25088;43.238;23.110;2023-03-08T05:52:03;95732.63;;;12.26;47.70
39363;BME280;25088;43.238;23.110;2023-03-08T05:54:29;95730.94;;;12.64;47.30
39363;BME280;25088;43.238;23.110;2023-03-08T05:56:54;95731.28;;;13.10;45.16
39363;BME280;25088;43.238;23.110;2023-03-08T05:59:20;95725.47;;;13.41;43.64
39363;BME280;25088;43.238;23.110;2023-03-08T06:01:45;95726.81;;;13.62;43.92
39363;BME280;25088;43.238;23.110;2023-03-08T06:04:11;95718.41;;;13.59;44.65
39363;BME280;25088;43.238;23.110;2023-03-08T06:06:36;95745.56;;;13.98;43.55
39363;BME280;25088;43.238;23.110;2023-03-08T06:09:02;95732.66;;;14.17;42.86
39363;BME280;25088;43.238;23.110;2023-03-08T06:11:28;95735.94;;;14.85;40.50
39363;BME280;25088;43.238;23.110;2023-03-08T06:13:53;95728.47;;;15.04;39.91
39363;BME280;25088;43.238;23.110;2023-03-08T06:16:19;95737.94;;;15.12;39.66
39363;BME280;25088;43.238;23.110;2023-03-08T06:18:45;95744.13;;;15.04;40.01
39363;BME280;25088;43.238;23.110;2023-03-08T06:21:16;95749.97;;;15.43;39.60
39363;BME280;25088;43.238;23.110;2023-03-08T06:23:42;95750.06;;;15.80;39.65
39363;BME280;25088;43.238;23.110;2023-03-08T06:26:09;95740.91;;;16.20;38.24
39363;BME280;25088;43.238;23.110;2023-03-08T06:28:35;95746.97;;;16.67;37.90
39363;BME280;25088;43.238;23.110;2023-03-08T06:31:02;95749.34;;;17.36;36.58
39363;BME280;25088;43.238;23.110;2023-03-08T06:33:29;95750.50;;;17.92;36.14
39363;BME280;25088;43.238;23.110;2023-03-08T06:36:04;95741.94;;;18.37;34.65
39363;BME280;25088;43.238;23.110;2023-03-08T06:38:33;95750.41;;;18.32;34.14
39363;BME280;25088;43.238;23.110;2023-03-08T06:40:59;95752.03;;;18.33;34.02
39363;BME280;25088;43.238;23.110;2023-03-08T06:43:25;95743.09;;;18.27;34.07
39363;BME280;25088;43.238;23.110;2023-03-08T06:45:51;95749.44;;;18.63;33.38
39363;BME280;25088;43.238;23.110;2023-03-08T06:48:17;95761.97;;;18.86;33.42
39363;BME280;25088;43.238;23.110;2023-03-08T06:50:43;95755.63;;;18.68;33.78
39363;BME280;25088;43.238;23.110;2023-03-08T06:53:09;95761.41;;;17.97;34.11
39363;BME280;25088;43.238;23.110;2023-03-08T06:55:36;95763.88;;;17.68;33.61
39363;BME280;25088;43.238;23.110;2023-03-08T06:58:02;95756.50;;;17.86;33.36
39363;BME280;25088;43.238;23.110;2023-03-08T07:00:27;95754.09;;;17.53;31.14
39363;BME280;25088;43.238;23.110;2023-03-08T07:02:53;95763.41;;;16.72;31.48
39363;BME280;25088;43.238;23.110;2023-03-08T07:05:19;95749.66;;;16.59;31.82
39363;BME280;25088;43.238;23.110;2023-03-08T07:07:44;95766.84;;;16.06;32.87
39363;BME280;25088;43.238;23.110;2023-03-08T07:10:12;95780.88;;;15.68;33.82
39363;BME280;25088;43.238;23.110;2023-03-08T07:12:41;95779.34;;;15.02;33.66
39363;BME280;25088;43.238;23.110;2023-03-08T07:15:12;95787.25;;;15.36;33.50
39363;BME280;25088;43.238;23.110;2023-03-08T07:17:41;95782.56;;;16.05;32.25
39363;BME280;25088;43.238;23.110;2023-03-08T07:20:08;95768.81;;;16.64;31.87
39363;BME280;25088;43.238;23.110;2023-03-08T07:22:34;95777.47;;;16.71;31.81
39363;BME280;25088;43.238;23.110;2023-03-08T07:25:00;95778.59;;;15.97;32.24
39363;BME280;25088;43.238;23.110;2023-03-08T07:27:25;95785.69;;;15.16;33.35
39363;BME280;25088;43.238;23.110;2023-03-08T07:29:51;95794.22;;;15.00;33.69
39363;BME280;25088;43.238;23.110;2023-03-08T07:32:16;95802.72;;;14.85;33.78
39363;BME280;25088;43.238;23.110;2023-03-08T07:34:42;95797.00;;;14.82;33.87
39363;BME280;25088;43.238;23.110;2023-03-08T07:37:14;95770.84;;;14.52;33.92
39363;BME280;25088;43.238;23.110;2023-03-08T07:39:41;95797.56;;;14.65;34.16
39363;BME280;25088;43.238;23.110;2023-03-08T07:42:09;95806.56;;;14.52;33.69
39363;BME280;25088;43.238;23.110;2023-03-08T07:44:34;95785.13;;;14.54;33.78
39363;BME280;25088;43.238;23.110;2023-03-08T07:47:02;95809.59;;;14.50;33.42
39363;BME280;25088;43.238;23.110;2023-03-08T07:49:28;95816.34;;;14.39;33.35
39363;BME280;25088;43.238;23.110;2023-03-08T07:51:54;95784.97;;;14.07;34.75
39363;BME280;25088;43.238;23.110;2023-03-08T07:54:20;95819.97;;;14.34;33.77
39363;BME280;25088;43.238;23.110;2023-03-08T07:56:45;95820.78;;;14.16;34.73
39363;BME280;25088;43.238;23.110;2023-03-08T07:59:11;95812.81;;;13.95;34.04
39363;BME280;25088;43.238;23.110;2023-03-08T08:01:36;95810.22;;;13.85;34.70
39363;BME280;25088;43.238;23.110;2023-03-08T08:04:02;95795.63;;;14.09;34.26
39363;BME280;25088;43.238;23.110;2023-03-08T08:06:28;95804.22;;;14.21;34.48
39363;BME280;25088;43.238;23.110;2023-03-08T08:08:55;95805.78;;;14.46;34.57
39363;BME280;25088;43.238;23.110;2023-03-08T08:11:20;95800.31;;;14.65;34.52
39363;BME280;25088;43.238;23.110;2023-03-08T08:13:46;95807.56;;;14.74;34.76
39363;BME280;25088;43.238;23.110;2023-03-08T08:16:13;95815.31;;;14.54;35.17
39363;BME280;25088;43.238;23.110;2023-03-08T08:18:39;95768.84;;;14.38;35.03
39363;BME280;25088;43.238;23.110;2023-03-08T08:21:07;95813.22;;;14.83;34.80
39363;BME280;25088;43.238;23.110;2023-03-08T08:23:34;95811.66;;;14.77;35.56
39363;BME280;25088;43.238;23.110;2023-03-08T08:26:03;95803.06;;;14.97;35.77
39363;BME280;25088;43.238;23.110;2023-03-08T08:28:29;95797.84;;;14.82;35.92
39363;BME280;25088;43.238;23.110;2023-03-08T08:30:57;95800.25;;;15.03;35.83
39363;BME280;25088;43.238;23.110;2023-03-08T08:33:22;95784.94;;;14.64;36.59
39363;BME280;25088;43.238;23.110;2023-03-08T08:35:48;95816.19;;;15.00;35.86
39363;BME280;25088;43.238;23.110;2023-03-08T08:38:13;95812.72;;;15.28;35.96
39363;BME280;25088;43.238;23.110;2023-03-08T08:40:39;95788.38;;;15.48;35.59
39363;BME280;25088;43.238;23.110;2023-03-08T08:43:04;95812.50;;;16.20;34.85
39363;BME280;25088;43.238;23.110;2023-03-08T08:45:30;95800.75;;;16.42;34.04
39363;BME280;25088;43.238;23.110;2023-03-08T08:47:55;95803.22;;;16.89;33.20
39363;BME280;25088;43.238;23.110;2023-03-08T08:50:21;95795.84;;;17.29;33.55
39363;BME280;25088;43.238;23.110;2023-03-08T08:52:46;95811.44;;;17.65;32.47
39363;BME280;25088;43.238;23.110;2023-03-08T08:55:12;95785.63;;;18.09;31.05
39363;BME280;25088;43.238;23.110;2023-03-08T08:57:37;95788.59;;;19.08;30.80
39363;BME280;25088;43.238;23.110;2023-03-08T09:00:03;95797.28;;;20.00;29.41
39363;BME280;25088;43.238;23.110;2023-03-08T09:02:32;95781.81;;;21.46;27.36
39363;BME280;25088;43.238;23.110;2023-03-08T09:04:58;95757.28;;;21.60;26.64
39363;BME280;25088;43.238;23.110;2023-03-08T09:07:23;95771.19;;;21.27;27.13
39363;BME280;25088;43.238;23.110;2023-03-08T09:09:49;95769.00;;;22.02;25.67
39363;BME280;25088;43.238;23.110;2023-03-08T09:12:14;95771.69;;;22.11;25.61
39363;BME280;25088;43.238;23.110;2023-03-08T09:14:40;95786.88;;;23.18;24.85
39363;BME280;25088;43.238;23.110;2023-03-08T09:17:05;95784.94;;;21.56;28.55
39363;BME280;25088;43.238;23.110;2023-03-08T09:19:31;95811.75;;;20.86;29.66
39363;BME280;25088;43.238;23.110;2023-03-08T09:21:57;95816.19;;;20.78;29.21
39363;BME280;25088;43.238;23.110;2023-03-08T09:24:22;95799.09;;;21.76;28.16
39363;BME280;25088;43.238;23.110;2023-03-08T09:26:48;95792.97;;;23.08;26.53
39363;BME280;25088;43.238;23.110;2023-03-08T09:29:13;95804.38;;;22.14;28.45
39363;BME280;25088;43.238;23.110;2023-03-08T09:31:39;95805.81;;;21.08;29.07
39363;BME280;25088;43.238;23.110;2023-03-08T09:34:06;95835.28;;;20.29;30.16
39363;BME280;25088;43.238;23.110;2023-03-08T09:36:33;95807.88;;;21.53;29.38
39363;BME280;25088;43.238;23.110;2023-03-08T09:38:59;95787.94;;;21.39;29.25
39363;BME280;25088;43.238;23.110;2023-03-08T09:44:31;95816.66;;;19.62;30.86
39363;BME280;25088;43.238;23.110;2023-03-08T09:49:44;95803.59;;;17.89;33.77
39363;BME280;25088;43.238;23.110;2023-03-08T09:54:52;95790.13;;;19.61;31.27
39363;BME280;25088;43.238;23.110;2023-03-08T09:57:29;95800.28;;;20.16;31.53
39363;BME280;25088;43.238;23.110;2023-03-08T10:00:02;95790.41;;;20.06;31.31
39363;BME280;25088;43.238;23.110;2023-03-08T10:02:51;95802.59;;;20.85;30.05
39363;BME280;25088;43.238;23.110;2023-03-08T10:05:22;95807.22;;;22.05;29.14
39363;BME280;25088;43.238;23.110;2023-03-08T10:08:00;95799.28;;;20.71;30.25
39363;BME280;25088;43.238;23.110;2023-03-08T10:13:28;95788.66;;;21.27;30.29
39363;BME280;25088;43.238;23.110;2023-03-08T10:16:18;95787.53;;;21.74;30.43
39363;BME280;25088;43.238;23.110;2023-03-08T10:21:33;95809.03;;;19.97;31.55
39363;BME280;25088;43.238;23.110;2023-03-08T10:24:14;95796.38;;;19.32;32.48
39363;BME280;25088;43.238;23.110;2023-03-08T10:26:41;95814.31;;;18.48;33.73
39363;BME280;25088;43.238;23.110;2023-03-08T10:29:10;95800.22;;;17.92;34.81
39363;BME280;25088;43.238;23.110;2023-03-08T10:31:36;95768.78;;;18.63;33.83
39363;BME280;25088;43.238;23.110;2023-03-08T10:34:23;95793.88;;;20.96;32.44
39363;BME280;25088;43.238;23.110;2023-03-08T10:36:56;95790.00;;;20.17;31.15
39363;BME280;25088;43.238;23.110;2023-03-08T10:39:22;95773.59;;;20.32;32.15
39363;BME280;25088;43.238;23.110;2023-03-08T10:41:50;95785.19;;;18.68;33.45
39363;BME280;25088;43.238;23.110;2023-03-08T10:44:31;95778.25;;;19.52;32.74
39363;BME280;25088;43.238;23.110;2023-03-08T10:46:58;95802.03;;;19.44;32.58
39363;BME280;25088;43.238;23.110;2023-03-08T10:49:24;95784.25;;;18.90;33.57
39363;BME280;25088;43.238;23.110;2023-03-08T10:51:58;95784.66;;;18.14;34.75
39363;BME280;25088;43.238;23.110;2023-03-08T10:54:24;95794.16;;;17.11;35.70
39363;BME280;25088;43.238;23.110;2023-03-08T10:56:59;95786.25;;;16.73;36.29
39363;BME280;25088;43.238;23.110;2023-03-08T10:59:29;95780.31;;;16.43;37.25
39363;BME280;25088;43.238;23.110;2023-03-08T11:02:16;95771.50;;;15.83;38.15
39363;BME280;25088;43.238;23.110;2023-03-08T11:04:54;95782.63;;;16.27;38.97
39363;BME280;25088;43.238;23.110;2023-03-08T11:07:24;95768.38;;;16.12;38.80
39363;BME280;25088;43.238;23.110;2023-03-08T11:09:51;95761.59;;;18.01;35.95
39363;BME280;25088;43.238;23.110;2023-03-08T11:12:24;95761.81;;;17.02;37.32
39363;BME280;25088;43.238;23.110;2023-03-08T11:14:51;95771.25;;;17.10;37.89
39363;BME280;25088;43.238;23.110;2023-03-08T11:20:11;95731.81;;;21.33;32.02
39363;BME280;25088;43.238;23.110;2023-03-08T11:26:04;95731.13;;;20.49;31.51
39363;BME280;25088;43.238;23.110;2023-03-08T11:28:45;95737.91;;;18.26;34.81
39363;BME280;25088;43.238;23.110;2023-03-08T11:31:36;95726.50;;;18.79;33.64
39363;BME280;25088;43.238;23.110;2023-03-08T11:40:02;95729.16;;;16.28;37.90
39363;BME280;25088;43.238;23.110;2023-03-08T11:42:48;95712.50;;;16.34;38.59
39363;BME280;25088;43.238;23.110;2023-03-08T11:45:28;95729.66;;;17.29;37.06
39363;BME280;25088;43.238;23.110;2023-03-08T11:50:43;95724.41;;;17.19;36.50
39363;BME280;25088;43.238;23.110;2023-03-08T11:53:25;95718.50;;;16.72;37.37
39363;BME280;25088;43.238;23.110;2023-03-08T11:56:03;95716.00;;;16.25;38.77
39363;BME280;25088;43.238;23.110;2023-03-08T12:01:25;95713.47;;;16.15;39.68
39363;BME280;25088;43.238;23.110;2023-03-08T12:03:54;95702.88;;;17.78;36.48
39363;BME280;25088;43.238;23.110;2023-03-08T12:06:25;95694.53;;;17.52;36.90
39363;BME280;25088;43.238;23.110;2023-03-08T12:09:21;95706.38;;;17.52;36.78
39363;BME280;25088;43.238;23.110;2023-03-08T12:12:06;95693.81;;;18.73;35.80
39363;BME280;25088;43.238;23.110;2023-03-08T12:14:48;95689.56;;;19.40;34.48
39363;BME280;25088;43.238;23.110;2023-03-08T12:17:23;95680.91;;;21.08;32.22
39363;BME280;25088;43.238;23.110;2023-03-08T12:19:50;95672.44;;;21.38;31.56
39363;BME280;25088;43.238;23.110;2023-03-08T12:25:28;95667.25;;;20.91;31.66
39363;BME280;25088;43.238;23.110;2023-03-08T12:33:22;95665.78;;;20.39;32.13
39363;BME280;25088;43.238;23.110;2023-03-08T12:40:50;95666.38;;;22.09;29.98
39363;BME280;25088;43.238;23.110;2023-03-08T12:48:21;95682.75;;;21.86;30.11
39363;BME280;25088;43.238;23.110;2023-03-08T12:50:58;95673.31;;;20.72;30.96
39363;BME280;25088;43.238;23.110;2023-03-08T12:58:37;95682.56;;;21.09;30.55
39363;BME280;25088;43.238;23.110;2023-03-08T13:01:21;95647.88;;;21.15;31.00
39363;BME280;25088;43.238;23.110;2023-03-08T13:03:47;95681.41;;;21.10;30.94
39363;BME280;25088;43.238;23.110;2023-03-08T13:09:11;95681.53;;;22.64;28.98
39363;BME280;25088;43.238;23.110;2023-03-08T13:11:46;95675.09;;;22.88;28.87
39363;BME280;25088;43.238;23.110;2023-03-08T13:17:34;95677.34;;;22.99;28.25
39363;BME280;25088;43.238;23.110;2023-03-08T13:20:07;95672.84;;;22.26;28.75
39363;BME280;25088;43.238;23.110;2023-03-08T13:22:43;95687.69;;;22.86;28.10
39363;BME280;25088;43.238;23.110;2023-03-08T13:30:34;95685.19;;;23.25;28.01
39363;BME280;25088;43.238;23.110;2023-03-08T13:33:06;95686.72;;;24.01;27.08
39363;BME280;25088;43.238;23.110;2023-03-08T13:35:32;95686.56;;;21.94;28.75
39363;BME280;25088;43.238;23.110;2023-03-08T13:37:59;95685.59;;;22.95;28.07
39363;BME280;25088;43.238;23.110;2023-03-08T13:40:26;95687.34;;;22.07;28.77
39363;BME280;25088;43.238;23.110;2023-03-08T13:43:02;95691.41;;;20.57;30.88
39363;BME280;25088;43.238;23.110;2023-03-08T13:45:30;95703.91;;;19.71;31.83
39363;BME280;25088;43.238;23.110;2023-03-08T13:47:57;95707.47;;;18.08;34.29
39363;BME280;25088;43.238;23.110;2023-03-08T13:50:31;95719.34;;;18.87;33.00
39363;BME280;25088;43.238;23.110;2023-03-08T13:52:59;95716.22;;;19.44;32.09
39363;BME280;25088;43.238;23.110;2023-03-08T13:55:38;95695.47;;;18.13;34.05
39363;BME280;25088;43.238;23.110;2023-03-08T13:58:30;95685.81;;;16.88;35.95
39363;BME280;25088;43.238;23.110;2023-03-08T14:01:12;95705.19;;;17.45;35.25
39363;BME280;25088;43.238;23.110;2023-03-08T14:03:40;95673.22;;;18.01;33.42
39363;BME280;25088;43.238;23.110;2023-03-08T14:08:45;95689.72;;;18.96;32.32
39363;BME280;25088;43.238;23.110;2023-03-08T14:11:20;95675.75;;;18.67;32.99
39363;BME280;25088;43.238;23.110;2023-03-08T14:13:49;95676.59;;;18.50;33.43